createdAt,value
2022-11-16T00:02:07.005Z,97151.16
2022-11-16T00:04:33.609Z,97151.91
2022-11-16T00:07:02.654Z,97153.28
2022-11-16T00:09:31.938Z,97153.19
2022-11-16T00:12:04.221Z,97156.28
2022-11-16T00:14:33.233Z,97153.38
2022-11-16T00:17:00.321Z,97157.88
2022-11-16T00:19:27.695Z,97157.38
2022-11-16T00:21:54.747Z,97149.75
2022-11-16T00:24:23.239Z,97145.50
2022-11-16T00:26:50.167Z,97151.31
2022-11-16T00:29:19.329Z,97148.47
2022-11-16T00:31:46.635Z,97147.25
2022-11-16T00:34:13.562Z,97156.44
2022-11-16T00:36:40.136Z,97155.25
2022-11-16T00:39:06.587Z,97152.59
2022-11-16T00:41:33.170Z,97147.28
2022-11-16T00:43:59.562Z,97158.00
2022-11-16T00:46:25.984Z,97158.03
2022-11-16T00:48:52.471Z,97150.31
2022-11-16T00:51:19.012Z,97153.44
2022-11-16T00:53:45.398Z,97149.41
2022-11-16T00:56:11.920Z,97145.06
2022-11-16T00:58:38.357Z,97146.91
2022-11-16T01:01:09.389Z,97141.19
2022-11-16T01:03:36.815Z,97141.59
2022-11-16T01:06:09.904Z,97138.75
2022-11-16T01:08:37.671Z,97140.56
2022-11-16T01:11:23.766Z,97135.88
2022-11-16T01:13:50.557Z,97130.19
2022-11-16T01:16:18.272Z,97135.34
2022-11-16T01:18:48.319Z,97139.03
2022-11-16T01:21:14.773Z,97128.53
2022-11-16T01:23:41.170Z,97130.38
2022-11-16T01:26:07.702Z,97128.28
2022-11-16T01:28:34.453Z,97123.59
2022-11-16T01:31:01.227Z,97128.44
2022-11-16T01:33:29.256Z,97123.94
2022-11-16T01:35:55.684Z,97124.84
2022-11-16T01:38:25.937Z,97124.03
2022-11-16T01:40:55.053Z,97121.84
2022-11-16T01:43:25.837Z,97114.69
2022-11-16T01:45:52.707Z,97118.63
2022-11-16T01:48:30.129Z,97114.25
2022-11-16T01:50:57.818Z,97113.72
2022-11-16T01:53:24.830Z,97105.22
2022-11-16T01:55:52.134Z,97096.97
2022-11-16T01:58:23.119Z,97102.16
2022-11-16T02:00:49.804Z,97099.25
2022-11-16T02:03:21.652Z,97092.34
2022-11-16T02:06:06.804Z,97103.44
2022-11-16T02:09:00.947Z,97098.13
2022-11-16T02:11:51.972Z,97092.81
2022-11-16T02:14:36.724Z,97093.72
2022-11-16T02:17:19.733Z,97092.91
2022-11-16T02:20:27.000Z,97086.81
2022-11-16T02:23:16.782Z,97087.72
2022-11-16T02:26:12.388Z,97084.97
2022-11-16T02:28:38.933Z,97079.75
2022-11-16T02:31:07.462Z,97079.50
2022-11-16T02:33:39.000Z,97078.31
2022-11-16T02:36:10.060Z,97077.81
2022-11-16T02:38:40.386Z,97074.13
2022-11-16T02:41:16.990Z,97076.25
2022-11-16T02:44:04.791Z,97069.31
2022-11-16T02:46:37.372Z,97073.16
2022-11-16T02:49:09.585Z,97067.66
2022-11-16T02:51:36.799Z,97062.97
2022-11-16T02:54:05.498Z,97057.66
2022-11-16T02:56:43.972Z,97057.75
2022-11-16T02:59:14.145Z,97059.59
2022-11-16T03:01:54.894Z,97059.78
2022-11-16T03:04:28.251Z,97059.59
2022-11-16T03:06:58.165Z,97055.75
2022-11-16T03:09:30.248Z,97059.03
2022-11-16T03:12:00.771Z,97051.53
2022-11-16T03:14:42.977Z,97068.31
2022-11-16T03:17:18.269Z,97058.41
2022-11-16T03:19:51.791Z,97057.50
2022-11-16T03:22:26.242Z,97053.25
2022-11-16T03:24:53.093Z,97050.97
2022-11-16T03:27:45.466Z,97053.72
2022-11-16T03:30:23.506Z,97053.69
2022-11-16T03:33:05.708Z,97057.53
2022-11-16T03:35:59.453Z,97064.59
2022-11-16T03:38:27.804Z,97066.75
2022-11-16T03:40:59.812Z,97063.16
2022-11-16T03:43:27.827Z,97058.31
2022-11-16T03:45:54.841Z,97054.69
2022-11-16T03:48:21.259Z,97058.47
2022-11-16T03:50:48.004Z,97053.41
2022-11-16T03:53:14.416Z,97053.13
2022-11-16T03:55:43.437Z,97062.03
2022-11-16T03:58:12.143Z,97050.47
2022-11-16T04:00:38.725Z,97049.22
2022-11-16T04:03:05.144Z,97040.31
2022-11-16T04:05:50.134Z,97050.50
2022-11-16T04:08:37.739Z,97045.94
2022-11-16T04:11:22.694Z,97038.59
2022-11-16T04:14:09.579Z,97039.75
2022-11-16T04:16:54.870Z,97037.22
2022-11-16T04:19:39.658Z,97038.03
2022-11-16T04:22:32.469Z,97029.41
2022-11-16T04:25:08.339Z,97033.59
2022-11-16T04:27:53.936Z,97042.88
2022-11-16T04:30:20.616Z,97042.97
2022-11-16T04:33:05.660Z,97045.41
2022-11-16T04:35:50.215Z,97053.47
2022-11-16T04:38:16.870Z,97054.50
2022-11-16T04:40:43.321Z,97049.47
2022-11-16T04:43:09.841Z,97049.13
2022-11-16T04:45:55.359Z,97060.50
2022-11-16T04:48:21.913Z,97056.38
2022-11-16T04:50:48.381Z,97054.22
2022-11-16T04:53:15.411Z,97052.63
2022-11-16T04:55:41.884Z,97056.00
2022-11-16T04:58:08.425Z,97053.09
2022-11-16T05:00:35.003Z,97063.28
2022-11-16T05:03:04.109Z,97056.75
2022-11-16T05:05:30.858Z,97060.16
2022-11-16T05:07:57.241Z,97053.72
2022-11-16T05:10:23.851Z,97055.19
2022-11-16T05:12:50.252Z,97058.03
2022-11-16T05:15:19.852Z,97064.91
2022-11-16T05:17:47.659Z,97065.91
2022-11-16T05:20:33.244Z,97061.59
2022-11-16T05:22:59.781Z,97069.22
2022-11-16T05:25:27.475Z,97071.34
2022-11-16T05:27:55.889Z,97071.16
2022-11-16T05:30:22.369Z,97068.13
2022-11-16T05:33:18.026Z,97068.41
2022-11-16T05:35:44.452Z,97070.44
2022-11-16T05:38:10.972Z,97068.31
2022-11-16T05:40:37.338Z,97054.72
2022-11-16T05:43:03.807Z,97065.66
2022-11-16T05:45:30.247Z,97065.09
2022-11-16T05:47:56.849Z,97073.91
2022-11-16T05:50:23.265Z,97072.41
2022-11-16T05:52:49.651Z,97076.00
2022-11-16T05:55:16.352Z,97071.13
2022-11-16T05:57:42.986Z,97077.00
2022-11-16T06:00:10.097Z,97075.00
2022-11-16T06:02:36.655Z,97080.91
2022-11-16T06:05:03.264Z,97078.94
2022-11-16T06:07:29.787Z,97077.97
2022-11-16T06:09:56.229Z,97082.91
2022-11-16T06:12:22.847Z,97079.88
2022-11-16T06:14:49.292Z,97082.16
2022-11-16T06:17:15.847Z,97076.94
2022-11-16T06:19:42.281Z,97084.47
2022-11-16T06:22:11.014Z,97085.28
2022-11-16T06:24:37.574Z,97087.06
2022-11-16T06:27:04.031Z,97097.03
2022-11-16T06:29:30.453Z,97095.03
2022-11-16T06:31:57.026Z,97101.94
2022-11-16T06:34:23.982Z,97100.72
2022-11-16T06:36:50.487Z,97099.81
2022-11-16T06:39:17.260Z,97103.47
2022-11-16T06:41:43.636Z,97102.00
2022-11-16T06:44:10.131Z,97106.50
2022-11-16T06:46:36.682Z,97112.00
2022-11-16T06:49:03.110Z,97109.81
2022-11-16T06:51:29.522Z,97111.53
2022-11-16T06:53:56.070Z,97122.09
2022-11-16T06:56:22.805Z,97123.59
2022-11-16T06:58:53.064Z,97117.34
2022-11-16T07:01:20.123Z,97125.44
2022-11-16T07:03:46.905Z,97124.50
2022-11-16T07:06:14.466Z,97127.72
2022-11-16T07:08:41.150Z,97123.31
2022-11-16T07:11:09.552Z,97135.91
2022-11-16T07:13:40.264Z,97125.53
2022-11-16T07:16:09.816Z,97132.16
2022-11-16T07:18:41.564Z,97132.16
2022-11-16T07:21:13.740Z,97143.34
2022-11-16T07:23:41.004Z,97147.47
2022-11-16T07:26:09.416Z,97143.09
2022-11-16T07:28:36.409Z,97142.69
2022-11-16T07:31:05.964Z,97143.97
2022-11-16T07:33:32.799Z,97144.81
2022-11-16T07:36:08.051Z,97140.69
2022-11-16T07:38:35.166Z,97153.81
2022-11-16T07:41:14.098Z,97150.03
2022-11-16T07:43:40.897Z,97159.59
2022-11-16T07:48:58.569Z,97165.59
2022-11-16T07:51:25.033Z,97160.53
2022-11-16T07:53:55.875Z,97165.38
2022-11-16T07:56:22.657Z,97165.78
2022-11-16T07:58:49.229Z,97157.41
2022-11-16T08:01:17.488Z,97172.72
2022-11-16T08:03:45.788Z,97168.75
2022-11-16T08:06:16.322Z,97174.22
2022-11-16T08:08:43.226Z,97179.88
2022-11-16T08:11:11.846Z,97170.38
2022-11-16T08:13:40.407Z,97177.34
2022-11-16T08:16:19.272Z,97167.66
2022-11-16T08:18:46.772Z,97167.38
2022-11-16T08:21:16.108Z,97163.44
2022-11-16T08:23:44.678Z,97166.97
2022-11-16T08:26:15.244Z,97161.81
2022-11-16T08:28:43.721Z,97176.88
2022-11-16T08:31:16.468Z,97179.72
2022-11-16T08:33:43.271Z,97189.72
2022-11-16T08:36:14.387Z,97191.22
2022-11-16T08:38:41.146Z,97192.94
2022-11-16T08:41:07.813Z,97196.03
2022-11-16T08:43:35.815Z,97184.31
2022-11-16T08:46:03.148Z,97198.03
2022-11-16T08:48:29.751Z,97203.13
2022-11-16T08:51:16.938Z,97203.78
2022-11-16T08:53:43.991Z,97204.03
2022-11-16T08:56:13.622Z,97209.56
2022-11-16T08:58:43.533Z,97206.81
2022-11-16T09:01:12.252Z,97215.56
2022-11-16T09:03:38.916Z,97208.75
2022-11-16T09:06:06.708Z,97215.88
2022-11-16T09:08:34.159Z,97217.56
2022-11-16T09:11:04.255Z,97213.22
2022-11-16T09:13:30.763Z,97215.69
2022-11-16T09:16:01.294Z,97224.34
2022-11-16T09:18:28.940Z,97225.91
2022-11-16T09:20:55.792Z,97221.66
2022-11-16T09:23:25.498Z,97230.28
2022-11-16T09:25:53.137Z,97215.66
2022-11-16T09:28:21.307Z,97219.81
2022-11-16T09:30:50.650Z,97228.22
2022-11-16T09:33:17.562Z,97223.34
2022-11-16T09:35:44.292Z,97224.53
2022-11-16T09:38:13.633Z,97221.34
2022-11-16T09:40:46.383Z,97232.63
2022-11-16T09:43:31.969Z,97230.41
2022-11-16T09:46:07.458Z,97235.28
2022-11-16T09:48:37.641Z,97245.97
2022-11-16T09:51:08.941Z,97249.50
2022-11-16T09:53:46.195Z,97243.84
2022-11-16T09:56:22.300Z,97249.81
2022-11-16T09:58:55.570Z,97251.47
2022-11-16T10:01:40.178Z,97247.78
2022-11-16T10:04:27.252Z,97256.50
2022-11-16T10:07:06.327Z,97260.59
2022-11-16T10:09:33.142Z,97250.69
2022-11-16T10:11:59.521Z,97254.72
2022-11-16T10:14:51.177Z,97256.94
2022-11-16T10:17:23.973Z,97257.09
2022-11-16T10:19:56.421Z,97261.41
2022-11-16T10:22:40.952Z,97258.91
2022-11-16T10:25:21.100Z,97255.56
2022-11-16T10:28:06.445Z,97253.50
2022-11-16T10:30:48.457Z,97243.91
2022-11-16T10:33:20.062Z,97240.19
2022-11-16T10:35:53.999Z,97241.66
2022-11-16T10:38:24.894Z,97244.38
2022-11-16T10:40:56.552Z,97242.00
2022-11-16T10:43:30.020Z,97230.72
2022-11-16T10:46:01.140Z,97226.75
2022-11-16T10:48:42.539Z,97233.53
2022-11-16T10:51:10.493Z,97239.84
2022-11-16T10:53:39.161Z,97233.16
2022-11-16T10:56:31.946Z,97230.34
2022-11-16T10:59:13.681Z,97233.00
2022-11-16T11:01:43.545Z,97225.53
2022-11-16T11:04:22.706Z,97216.91
2022-11-16T11:06:57.512Z,97219.88
2022-11-16T11:09:37.173Z,97216.06
2022-11-16T11:12:36.733Z,97207.56
2022-11-16T11:15:15.563Z,97217.75
2022-11-16T11:17:44.648Z,97221.28
2022-11-16T11:20:17.338Z,97218.41
2022-11-16T11:23:02.534Z,97219.09
2022-11-16T11:25:36.017Z,97217.41
2022-11-16T11:28:23.381Z,97223.81
2022-11-16T11:31:17.027Z,97219.63
2022-11-16T11:33:49.998Z,97214.06
2022-11-16T11:36:21.486Z,97223.16
2022-11-16T11:39:01.446Z,97205.91
2022-11-16T11:41:39.777Z,97213.47
2022-11-16T11:44:17.611Z,97210.19
2022-11-16T11:49:49.968Z,97218.25
2022-11-16T11:52:31.151Z,97208.06
2022-11-16T11:54:57.584Z,97208.50
2022-11-16T11:57:24.900Z,97203.09
2022-11-16T11:59:54.517Z,97210.50
2022-11-16T12:02:54.846Z,97200.88
2022-11-16T12:05:43.152Z,97203.06
2022-11-16T12:08:47.425Z,97195.38
2022-11-16T12:11:51.219Z,97188.78
2022-11-16T12:14:32.785Z,97183.31
2022-11-16T12:17:02.359Z,97192.09
2022-11-16T12:19:58.112Z,97188.47
2022-11-16T12:22:41.389Z,97184.09
2022-11-16T12:25:07.852Z,97186.78
2022-11-16T12:27:52.882Z,97186.84
2022-11-16T12:30:21.784Z,97181.44
2022-11-16T12:33:03.416Z,97176.66
2022-11-16T12:35:53.041Z,97178.50
2022-11-16T12:38:41.064Z,97180.19
2022-11-16T12:41:43.913Z,97175.19
2022-11-16T12:44:14.716Z,97175.56
2022-11-16T12:47:07.755Z,97177.31
2022-11-16T12:49:43.346Z,97180.13
2022-11-16T12:52:21.104Z,97183.25
2022-11-16T12:55:26.014Z,97166.31
2022-11-16T12:58:37.672Z,97162.81
2022-11-16T13:01:29.213Z,97163.38
2022-11-16T13:04:03.723Z,97164.13
2022-11-16T13:06:36.732Z,97161.59
2022-11-16T13:09:13.645Z,97157.34
2022-11-16T13:11:45.793Z,97150.16
2022-11-16T13:14:17.864Z,97160.28
2022-11-16T13:16:46.333Z,97148.13
2022-11-16T13:19:15.709Z,97145.28
2022-11-16T13:21:48.236Z,97153.16
2022-11-16T13:24:46.781Z,97140.25
2022-11-16T13:27:24.210Z,97147.44
2022-11-16T13:29:57.563Z,97142.91
2022-11-16T13:32:33.926Z,97145.38
2022-11-16T13:35:03.931Z,97135.72
2022-11-16T13:37:39.445Z,97135.91
2022-11-16T13:40:05.845Z,97135.56
2022-11-16T13:42:35.755Z,97135.97
2022-11-16T13:45:16.775Z,97134.84
2022-11-16T13:47:52.837Z,97136.81
2022-11-16T13:50:22.601Z,97123.97
2022-11-16T13:54:17.578Z,97117.25
2022-11-16T13:55:42.843Z,97115.16
2022-11-16T13:58:12.843Z,97115.56
2022-11-16T14:00:40.536Z,97110.22
2022-11-16T14:03:16.290Z,97112.53
2022-11-16T14:05:45.099Z,97104.19
2022-11-16T14:08:37.251Z,97119.09
2022-11-16T14:11:05.336Z,97110.50
2022-11-16T14:13:47.017Z,97113.44
2022-11-16T14:16:19.574Z,97110.16
2022-11-16T14:18:53.772Z,97108.19
2022-11-16T14:21:31.863Z,97110.66
2022-11-16T14:24:17.099Z,97113.06
2022-11-16T14:27:08.569Z,97109.63
2022-11-16T14:29:47.158Z,97102.00
2022-11-16T14:32:23.498Z,97092.81
2022-11-16T14:34:52.199Z,97086.50
2022-11-16T14:37:40.293Z,97091.50
2022-11-16T14:40:13.907Z,97094.50
2022-11-16T14:43:14.930Z,97098.59
2022-11-16T14:45:38.443Z,97108.13
2022-11-16T14:48:20.061Z,97107.56
2022-11-16T14:51:24.789Z,97107.66
2022-11-16T14:54:01.949Z,97096.22
2022-11-16T14:56:28.556Z,97099.13
2022-11-16T14:59:00.253Z,97099.38
2022-11-16T15:01:30.241Z,97114.56
2022-11-16T15:04:04.859Z,97095.16
2022-11-16T15:06:56.448Z,97094.34
2022-11-16T15:09:28.962Z,97102.72
2022-11-16T15:12:16.173Z,97092.81
2022-11-16T15:14:52.192Z,97085.50
2022-11-16T15:17:22.488Z,97077.25
2022-11-16T15:20:00.894Z,97071.78
2022-11-16T15:22:30.600Z,97076.69
2022-11-16T15:24:59.365Z,97081.69
2022-11-16T15:27:32.535Z,97085.25
2022-11-16T15:30:01.801Z,97078.09
2022-11-16T15:32:28.479Z,97079.25
2022-11-16T15:34:55.048Z,97072.19
2022-11-16T15:37:29.249Z,97072.31
2022-11-16T15:39:57.830Z,97069.66
2022-11-16T15:42:26.805Z,97066.94
2022-11-16T15:44:54.344Z,97061.78
2022-11-16T15:47:22.304Z,97063.56
2022-11-16T15:49:52.964Z,97074.56
2022-11-16T15:52:49.436Z,97066.34
2022-11-16T15:55:34.069Z,97081.78
2022-11-16T15:58:25.854Z,97073.97
2022-11-16T16:00:53.481Z,97073.97
2022-11-16T16:03:26.062Z,97059.84
2022-11-16T16:05:54.438Z,97058.47
2022-11-16T16:08:35.791Z,97048.00
2022-11-16T16:11:27.255Z,97046.00
2022-11-16T16:13:59.901Z,97040.00
2022-11-16T16:16:28.129Z,97040.28
2022-11-16T16:18:58.152Z,97045.16
2022-11-16T16:21:26.135Z,97055.63
2022-11-16T16:23:54.759Z,97053.72
2022-11-16T16:26:22.231Z,97049.75
2022-11-16T16:28:50.683Z,97045.72
2022-11-16T16:31:19.116Z,97048.66
2022-11-16T16:33:45.519Z,97046.09
2022-11-16T16:36:13.491Z,97053.59
2022-11-16T16:38:40.194Z,97045.06
2022-11-16T16:41:06.877Z,97037.16
2022-11-16T16:43:33.980Z,97028.53
2022-11-16T16:46:02.195Z,97028.19
2022-11-16T16:48:28.894Z,97039.69
2022-11-16T16:50:55.351Z,97024.44
2022-11-16T16:53:21.835Z,97032.16
2022-11-16T16:55:48.898Z,97022.63
2022-11-16T16:58:16.125Z,97019.75
2022-11-16T17:00:42.868Z,97019.66
2022-11-16T17:03:09.597Z,97014.34
2022-11-16T17:05:36.326Z,97013.63
2022-11-16T17:08:03.066Z,97013.59
2022-11-16T17:10:29.838Z,97019.03
2022-11-16T17:12:57.255Z,97005.19
2022-11-16T17:15:24.076Z,97007.19
2022-11-16T17:17:50.658Z,97007.66
2022-11-16T17:20:17.281Z,97008.47
2022-11-16T17:22:43.880Z,97003.16
2022-11-16T17:25:10.675Z,97011.56
2022-11-16T17:27:37.189Z,97008.78
2022-11-16T17:30:04.221Z,97001.00
2022-11-16T17:32:30.804Z,96998.50
2022-11-16T17:34:57.243Z,96996.97
2022-11-16T17:37:23.850Z,96999.72
2022-11-16T17:39:50.290Z,96997.91
2022-11-16T17:42:16.811Z,96989.75
2022-11-16T17:44:43.221Z,96994.59
2022-11-16T17:47:09.705Z,96988.25
2022-11-16T17:49:36.120Z,96982.88
2022-11-16T17:52:02.933Z,96992.03
2022-11-16T17:54:29.348Z,96996.31
2022-11-16T17:56:55.797Z,96984.78
2022-11-16T17:59:27.923Z,96986.06
2022-11-16T18:01:57.604Z,96980.47
2022-11-16T18:04:24.449Z,96980.47
2022-11-16T18:06:50.921Z,96988.53
2022-11-16T18:09:18.672Z,96984.25
2022-11-16T18:11:45.190Z,96984.88
2022-11-16T18:14:11.642Z,96985.88
2022-11-16T18:16:40.945Z,96979.06
2022-11-16T18:19:07.462Z,96967.81
2022-11-16T18:21:41.012Z,96964.63
2022-11-16T18:24:08.082Z,96965.19
2022-11-16T18:26:34.821Z,96971.41
2022-11-16T18:29:01.350Z,96968.63
2022-11-16T18:31:29.627Z,96964.66
2022-11-16T18:33:56.095Z,96966.78
2022-11-16T18:36:22.968Z,96958.38
2022-11-16T18:38:49.759Z,96960.19
2022-11-16T18:41:19.900Z,96954.50
2022-11-16T18:43:54.738Z,96953.97
2022-11-16T18:46:25.832Z,96954.16
2022-11-16T18:48:52.497Z,96952.03
2022-11-16T18:51:20.939Z,96950.78
2022-11-16T18:53:47.629Z,96957.25
2022-11-16T18:56:15.057Z,96952.47
2022-11-16T18:58:51.268Z,96950.28
2022-11-16T19:01:20.949Z,96936.72
2022-11-16T19:03:47.821Z,96930.59
2022-11-16T19:06:15.762Z,96929.28
2022-11-16T19:08:42.780Z,96929.84
2022-11-16T19:11:11.835Z,96923.06
2022-11-16T19:13:40.132Z,96922.41
2022-11-16T19:16:07.947Z,96925.28
2022-11-16T19:18:35.453Z,96914.53
2022-11-16T19:21:07.672Z,96919.78
2022-11-16T19:23:38.594Z,96916.00
2022-11-16T19:26:06.313Z,96918.88
2022-11-16T19:28:40.473Z,96911.91
2022-11-16T19:31:12.362Z,96921.63
2022-11-16T19:33:39.332Z,96934.53
2022-11-16T19:36:18.197Z,96929.59
2022-11-16T19:38:46.853Z,96916.84
2022-11-16T19:41:14.912Z,96923.25
2022-11-16T19:43:42.182Z,96928.38
2022-11-16T19:46:16.685Z,96927.84
2022-11-16T19:48:44.336Z,96928.56
2022-11-16T19:51:13.739Z,96924.94
2022-11-16T19:53:40.416Z,96925.13
2022-11-16T19:56:09.886Z,96918.16
2022-11-16T19:58:38.299Z,96920.00
2022-11-16T20:01:07.448Z,96931.00
2022-11-16T20:03:34.823Z,96929.09
2022-11-16T20:06:13.575Z,96925.69
2022-11-16T20:08:41.504Z,96934.44
2022-11-16T20:11:15.165Z,96932.28
2022-11-16T20:13:42.444Z,96935.59
2022-11-16T20:16:11.081Z,96927.00
2022-11-16T20:18:38.378Z,96925.38
2022-11-16T20:21:06.016Z,96914.81
2022-11-16T20:23:37.634Z,96906.22
2022-11-16T20:26:10.000Z,96904.91
2022-11-16T20:28:38.233Z,96906.03
2022-11-16T20:31:08.521Z,96905.38
2022-11-16T20:33:35.250Z,96898.22
2022-11-16T20:36:06.930Z,96897.97
2022-11-16T20:38:34.409Z,96900.06
2022-11-16T20:41:15.255Z,96900.78
2022-11-16T20:43:43.362Z,96892.72
2022-11-16T20:46:15.022Z,96891.56
2022-11-16T20:48:42.748Z,96887.50
2022-11-16T20:51:12.622Z,96882.53
2022-11-16T20:53:39.186Z,96891.81
2022-11-16T20:56:07.628Z,96888.06
2022-11-16T20:58:34.670Z,96887.56
2022-11-16T21:01:02.724Z,96878.34
2022-11-16T21:03:29.239Z,96875.22
2022-11-16T21:05:55.978Z,96868.34
2022-11-16T21:08:23.881Z,96866.69
2022-11-16T21:10:50.294Z,96860.66
2022-11-16T21:13:37.823Z,96862.38
2022-11-16T21:16:11.351Z,96858.06
2022-11-16T21:18:39.432Z,96855.94
2022-11-16T21:21:14.062Z,96842.41
2022-11-16T21:23:49.900Z,96844.84
2022-11-16T21:26:16.314Z,96839.09
2022-11-16T21:28:45.786Z,96839.56
2022-11-16T21:31:25.669Z,96844.16
2022-11-16T21:33:53.477Z,96840.00
2022-11-16T21:36:22.594Z,96830.81
2022-11-16T21:38:50.040Z,96835.38
2022-11-16T21:41:18.426Z,96831.50
2022-11-16T21:43:45.354Z,96833.66
2022-11-16T21:46:17.238Z,96832.38
2022-11-16T21:48:44.343Z,96831.03
2022-11-16T21:51:13.453Z,96831.66
2022-11-16T21:53:40.182Z,96837.34
2022-11-16T21:56:11.456Z,96830.47
2022-11-16T21:58:39.132Z,96820.19
2022-11-16T22:01:05.958Z,96819.78
2022-11-16T22:03:33.127Z,96819.28
2022-11-16T22:06:21.301Z,96823.75
2022-11-16T22:08:48.671Z,96819.19
2022-11-16T22:11:16.085Z,96818.22
2022-11-16T22:13:43.343Z,96813.47
2022-11-16T22:16:12.125Z,96815.38
2022-11-16T22:18:39.067Z,96810.09
2022-11-16T22:21:05.847Z,96802.81
2022-11-16T22:23:32.899Z,96800.38
2022-11-16T22:26:04.932Z,96785.69
2022-11-16T22:28:33.156Z,96780.88
2022-11-16T22:31:04.967Z,96784.66
2022-11-16T22:33:32.726Z,96779.81
2022-11-16T22:35:59.658Z,96782.75
2022-11-16T22:38:26.501Z,96778.59
2022-11-16T22:40:54.813Z,96771.88
2022-11-16T22:43:23.771Z,96769.53
2022-11-16T22:45:50.678Z,96770.16
2022-11-16T22:48:17.768Z,96769.03
2022-11-16T22:50:44.227Z,96764.22
2022-11-16T22:53:10.680Z,96763.19
2022-11-16T22:55:38.548Z,96759.81
2022-11-16T22:58:05.459Z,96751.66
2022-11-16T23:00:37.466Z,96759.19
2022-11-16T23:03:07.324Z,96756.59
2022-11-16T23:05:33.868Z,96750.63
2022-11-16T23:08:00.302Z,96754.13
2022-11-16T23:10:26.770Z,96753.06
2022-11-16T23:13:12.034Z,96740.88
2022-11-16T23:15:50.330Z,96730.53
2022-11-16T23:18:17.500Z,96730.00
2022-11-16T23:21:02.381Z,96723.84
2022-11-16T23:23:47.297Z,96722.28
2022-11-16T23:26:41.073Z,96712.75
2022-11-16T23:29:11.439Z,96716.56
2022-11-16T23:31:38.416Z,96703.03
2022-11-16T23:34:05.815Z,96707.66
2022-11-16T23:36:32.364Z,96699.19
2022-11-16T23:38:58.906Z,96695.97
2022-11-16T23:41:43.590Z,96695.16
2022-11-16T23:44:10.043Z,96684.38
2022-11-16T23:46:36.640Z,96681.31
2022-11-16T23:49:03.133Z,96682.41
2022-11-16T23:51:29.486Z,96683.84
2022-11-16T23:53:55.974Z,96677.75
2022-11-16T23:56:23.230Z,96670.28
2022-11-16T23:58:50.118Z,96663.16
